sensor_id;sensor_type;location;lat;lon;timestamp;P1;durP1;ratioP1;P2;durP2;ratioP2
1567;SDS011;777;47.156;8.326;2024-01-30T00:12:19;16.50;;;14.80;;
1567;SDS011;777;47.156;8.326;2024-01-30T00:42:23;15.43;;;13.07;;
1567;SDS011;777;47.156;8.326;2024-01-30T01:12:26;17.67;;;15.70;;
1567;SDS011;777;47.156;8.326;2024-01-30T01:42:30;18.40;;;16.50;;
1567;SDS011;777;47.156;8.326;2024-01-30T02:12:33;18.43;;;16.60;;
1567;SDS011;777;47.156;8.326;2024-01-30T02:42:38;17.97;;;16.07;;
1567;SDS011;777;47.156;8.326;2024-01-30T03:12:43;16.50;;;14.90;;
1567;SDS011;777;47.156;8.326;2024-01-30T03:42:46;17.57;;;15.80;;
1567;SDS011;777;47.156;8.326;2024-01-30T04:12:50;20.10;;;18.10;;
1567;SDS011;777;47.156;8.326;2024-01-30T04:42:53;21.77;;;19.23;;
1567;SDS011;777;47.156;8.326;2024-01-30T05:12:57;24.10;;;20.13;;
1567;SDS011;777;47.156;8.326;2024-01-30T05:43:00;21.63;;;19.30;;
1567;SDS011;777;47.156;8.326;2024-01-30T06:13:04;23.63;;;21.23;;
1567;SDS011;777;47.156;8.326;2024-01-30T06:43:07;20.67;;;18.57;;
1567;SDS011;777;47.156;8.326;2024-01-30T07:13:11;20.33;;;17.90;;
1567;SDS011;777;47.156;8.326;2024-01-30T07:43:17;15.35;;;12.85;;
1567;SDS011;777;47.156;8.326;2024-01-30T08:13:21;11.02;;;7.93;;
1567;SDS011;777;47.156;8.326;2024-01-30T08:43:25;10.40;;;7.72;;
1567;SDS011;777;47.156;8.326;2024-01-30T09:13:28;9.60;;;5.72;;
1567;SDS011;777;47.156;8.326;2024-01-30T09:43:32;7.80;;;5.53;;
1567;SDS011;777;47.156;8.326;2024-01-30T10:13:36;7.93;;;6.85;;
1567;SDS011;777;47.156;8.326;2024-01-30T10:43:41;8.17;;;6.30;;
1567;SDS011;777;47.156;8.326;2024-01-30T11:13:50;13.82;;;7.75;;
1567;SDS011;777;47.156;8.326;2024-01-30T11:43:53;5.45;;;4.20;;
1567;SDS011;777;47.156;8.326;2024-01-30T12:13:57;6.05;;;4.03;;
1567;SDS011;777;47.156;8.326;2024-01-30T12:44:01;5.22;;;3.53;;
1567;SDS011;777;47.156;8.326;2024-01-30T13:14:04;6.45;;;4.35;;
1567;SDS011;777;47.156;8.326;2024-01-30T13:44:09;8.70;;;6.35;;
1567;SDS011;777;47.156;8.326;2024-01-30T14:14:14;10.35;;;6.35;;
1567;SDS011;777;47.156;8.326;2024-01-30T14:44:17;10.73;;;7.32;;
1567;SDS011;777;47.156;8.326;2024-01-30T15:14:20;11.95;;;8.10;;
1567;SDS011;777;47.156;8.326;2024-01-30T15:44:24;13.30;;;9.35;;
1567;SDS011;777;47.156;8.326;2024-01-30T16:14:27;11.40;;;9.68;;
1567;SDS011;777;47.156;8.326;2024-01-30T16:44:31;11.02;;;9.77;;
1567;SDS011;777;47.156;8.326;2024-01-30T17:44:41;12.88;;;10.43;;
1567;SDS011;777;47.156;8.326;2024-01-30T18:14:44;23.17;;;14.88;;
1567;SDS011;777;47.156;8.326;2024-01-30T18:44:47;17.27;;;13.60;;
1567;SDS011;777;47.156;8.326;2024-01-30T19:14:51;19.13;;;14.83;;
1567;SDS011;777;47.156;8.326;2024-01-30T19:44:55;15.02;;;12.57;;
1567;SDS011;777;47.156;8.326;2024-01-30T20:14:58;17.93;;;13.27;;
1567;SDS011;777;47.156;8.326;2024-01-30T20:45:03;18.73;;;14.53;;
1567;SDS011;777;47.156;8.326;2024-01-30T21:15:08;21.25;;;16.40;;
1567;SDS011;777;47.156;8.326;2024-01-30T21:45:12;18.80;;;14.77;;
1567;SDS011;777;47.156;8.326;2024-01-30T22:45:19;18.10;;;16.23;;
1567;SDS011;777;47.156;8.326;2024-01-30T23:15:23;15.33;;;13.70;;
1567;SDS011;777;47.156;8.326;2024-01-30T23:45:26;19.93;;;17.93;;
